South Florida, Florida
Current Conditions -  °F | °C
As of 1:53 PM on Monday 20 Oct 2014 (Local Time) from KFLL Reporting Station
Broken Clouds Broken Clouds  
Wind Chill: 85°   Ceiling: 25000
Heat Index: 88°   Visibility: 10mi
Dew Point: 68°   Wind: 14mph
Humidity: 57%   Direction: 100°E
Pressure: 29.97"   Gusts: NA
Location:  26.01°N, 80.15°W
Report Text: KFLL 201753Z 10012KT 10SM FEW039 SCT050 BKN250 29/20 A2997 RMK AO2 SLP146 T02940200 10300 20250 58020
Loading
Personal Weather Stations






























Interactive Weather Map
Tropical Storm Tracking
New forecast layout! Learn more

10-Day Weather Forecast

Advertisements
Track Severe Weather on mobile